Sainte-Rose, Canada
Current Conditions -  °F | °C
As of 3:00 AM on Tuesday 21 Oct 2014 (Local Time) from CYUL Reporting Station
Light Rain Light Rain  
Wind Chill: 37°   Ceiling: 5300
Heat Index: 43°   Visibility: 15mi
Dew Point: 39°   Wind: 9mph
Humidity: 87%   Direction: 50°NE
Pressure: 29.93"   Gusts: NA
Location:  45.62°N, 73.78°W
Report Text: CYUL 210700Z 05008KT 15SM -RA BKN053 OVC085 06/04 A2993 RMK SC6AC2 SLP138
Loading
Personal Weather Stations






























Interactive Weather Map
Tropical Storm Tracking
New forecast layout! Learn more

10-Day Weather Forecast

Advertisements
Track Severe Weather on mobile